sim
Sign-in with your pilot id or email,
or register
Callsign
Passwort

Schedule Details

Flight Number: DLH1612
Departure: Munich Airport (EDDM) at 09:40
Arrival: Warsaw Chopin Airport (EPWA) at 11:10
Route: Lufthansa Passenger Schedule. Enter filed route here before submitting Pirep.

Weather Information
Getting current METAR information for EDDM 010250Z 00000KT 0800 0400NE R08L/0400U R08R/1400U FG NSC 04/03 Q1010 BECMG 0500 BKN001
Getting current METAR information for EPWA 010300Z 04007KT 010V070 9999 FEW008 BKN028 13/12 Q1007 TEMPO BKN008

Schedule Frequency

Route Map